createdAt,value
2022-08-24T00:14:18.520Z,960.03
2022-08-24T00:29:20.752Z,960.24
2022-08-24T00:44:22.939Z,960.31
2022-08-24T00:59:25.165Z,960.48
2022-08-24T01:14:27.393Z,960.54
2022-08-24T01:29:29.577Z,960.78
2022-08-24T01:44:33.206Z,961.06
2022-08-24T01:59:35.468Z,961.31
2022-08-24T02:14:37.692Z,961.8
2022-08-24T02:29:40.048Z,961.97
2022-08-24T02:44:42.343Z,962.23
2022-08-24T02:59:44.556Z,962.4
2022-08-24T03:14:46.750Z,962.55
2022-08-24T03:29:48.912Z,962.78
2022-08-24T03:44:52.319Z,962.86
2022-08-24T03:59:54.516Z,963.02
2022-08-24T04:14:56.728Z,963.14
2022-08-24T04:29:58.968Z,963.16
2022-08-24T04:45:01.230Z,963.19
2022-08-24T05:00:03.541Z,963.42
2022-08-24T05:15:05.703Z,963.55
2022-08-24T05:30:07.914Z,963.59
2022-08-24T05:45:10.126Z,963.66
2022-08-24T06:00:12.339Z,963.76
2022-08-24T06:15:14.512Z,963.82
2022-08-24T06:30:16.754Z,963.87
2022-08-24T06:45:18.944Z,963.87
2022-08-24T07:00:21.129Z,963.87
2022-08-24T07:15:23.367Z,963.92
2022-08-24T07:30:27.270Z,964.05
2022-08-24T07:45:30.375Z,964.12
2022-08-24T08:00:32.624Z,964.23
2022-08-24T08:15:34.948Z,964.32
2022-08-24T08:30:38.264Z,964.38
2022-08-24T08:45:40.641Z,964.49
2022-08-24T09:00:42.908Z,964.57
2022-08-24T09:15:45.143Z,964.67
2022-08-24T09:30:47.723Z,964.72
2022-08-24T09:45:52.068Z,964.68
2022-08-24T10:00:54.779Z,964.82
2022-08-24T10:15:59.257Z,964.8
2022-08-24T10:31:01.496Z,964.81
2022-08-24T10:46:03.909Z,964.88
2022-08-24T11:01:06.197Z,964.91
2022-08-24T11:16:08.717Z,964.88
2022-08-24T11:31:11.013Z,964.96
2022-08-24T11:46:13.342Z,965.05
2022-08-24T12:01:15.617Z,965.14
2022-08-24T12:16:17.862Z,965.16
2022-08-24T12:31:20.169Z,965.29
2022-08-24T12:46:22.463Z,965.25
2022-08-24T13:01:26.961Z,965.3
2022-08-24T13:16:32.158Z,965.39
2022-08-24T13:31:34.513Z,965.58
2022-08-24T13:46:37.167Z,965.66
2022-08-24T14:01:39.712Z,965.81
2022-08-24T14:16:42.002Z,965.86
2022-08-24T14:31:45.870Z,965.84
2022-08-24T14:46:48.370Z,965.76
2022-08-24T15:01:50.665Z,965.82
2022-08-24T15:16:53.295Z,965.83
2022-08-24T15:31:56.309Z,965.68
2022-08-24T15:46:58.579Z,965.5
2022-08-24T16:02:00.756Z,965.34
2022-08-24T16:17:03.049Z,965.11
2022-08-24T16:32:05.518Z,964.96
2022-08-24T16:47:07.859Z,964.67
2022-08-24T17:02:10.124Z,964.49
2022-08-24T17:17:12.455Z,964.38
2022-08-24T17:32:14.880Z,964.25
2022-08-24T17:47:17.140Z,964.02
2022-08-24T18:02:19.409Z,963.98
2022-08-24T18:17:22.793Z,963.78
2022-08-24T18:32:30.984Z,963.54
2022-08-24T18:47:34.303Z,963.59
2022-08-24T19:02:36.797Z,963.39
2022-08-24T19:17:39.253Z,963.25
2022-08-24T19:32:41.473Z,963.19
2022-08-24T19:47:43.689Z,963.16
2022-08-24T20:02:46.047Z,963.14
2022-08-24T20:17:48.343Z,963.12
2022-08-24T20:32:50.531Z,962.9
2022-08-24T20:47:52.734Z,962.72
2022-08-24T21:02:54.984Z,962.56
2022-08-24T21:17:57.231Z,962.26
2022-08-24T21:32:59.515Z,962.16
2022-08-24T21:48:01.945Z,962.04
2022-08-24T22:03:04.515Z,961.97
2022-08-24T22:18:07.093Z,961.84
2022-08-24T22:33:09.362Z,961.52
2022-08-24T22:48:11.766Z,961.31
2022-08-24T23:03:14.342Z,961.02
2022-08-24T23:18:16.673Z,960.8
2022-08-24T23:33:18.873Z,960.64
2022-08-24T23:48:22.105Z,960.55
